createdAt,value
2019-03-31T00:02:00.905Z,9.80
2019-03-31T00:04:30.576Z,9.80
2019-03-31T00:07:00.282Z,9.70
2019-03-31T00:09:29.824Z,9.60
2019-03-31T00:11:58.861Z,9.70
2019-03-31T00:14:27.635Z,9.60
2019-03-31T00:16:56.702Z,9.60
2019-03-31T00:19:25.962Z,9.60
2019-03-31T00:21:56.086Z,9.50
2019-03-31T00:24:25.070Z,9.50
2019-03-31T00:26:54.678Z,9.40
2019-03-31T00:29:23.630Z,9.30
2019-03-31T00:31:52.690Z,9.30
2019-03-31T00:34:22.220Z,9.30
2019-03-31T00:36:51.476Z,9.20
2019-03-31T00:39:21.013Z,9.20
2019-03-31T00:41:50.478Z,9.30
2019-03-31T00:44:19.441Z,9.20
2019-03-31T00:46:49.521Z,9.20
2019-03-31T00:49:18.438Z,9.20
2019-03-31T00:51:47.129Z,9.10
2019-03-31T00:54:16.393Z,9.10
2019-03-31T00:56:45.327Z,9.00
2019-03-31T00:59:14.968Z,9.00
2019-03-31T01:01:50.734Z,9.00
2019-03-31T01:04:23.602Z,9.10
2019-03-31T01:06:53.739Z,9.00
2019-03-31T01:09:26.938Z,9.00
2019-03-31T01:11:56.673Z,8.90
2019-03-31T01:14:27.342Z,8.90
2019-03-31T01:16:57.029Z,8.80
2019-03-31T01:19:27.176Z,8.80
2019-03-31T01:21:57.939Z,8.80
2019-03-31T01:24:26.870Z,8.80
2019-03-31T01:26:56.106Z,8.80
2019-03-31T01:29:25.175Z,8.80
2019-03-31T01:31:55.417Z,8.70
2019-03-31T01:34:25.575Z,8.70
2019-03-31T01:36:55.154Z,8.70
2019-03-31T01:39:26.785Z,8.60
2019-03-31T01:41:56.818Z,8.60
2019-03-31T01:44:26.142Z,8.60
2019-03-31T01:46:55.025Z,8.50
2019-03-31T01:49:24.721Z,8.50
2019-03-31T01:51:54.050Z,8.50
2019-03-31T01:54:41.613Z,8.40
2019-03-31T01:57:10.778Z,8.40
2019-03-31T01:59:40.208Z,8.30
2019-03-31T02:02:13.447Z,8.30
2019-03-31T02:04:42.737Z,8.30
2019-03-31T02:07:12.058Z,8.20
2019-03-31T02:09:41.023Z,8.20
2019-03-31T02:12:10.131Z,8.20
2019-03-31T02:14:39.077Z,8.20
2019-03-31T02:17:09.382Z,8.10
2019-03-31T02:19:38.750Z,8.10
2019-03-31T02:22:08.996Z,8.00
2019-03-31T02:24:37.916Z,8.00
2019-03-31T02:27:06.945Z,8.00
2019-03-31T02:29:36.286Z,7.90
2019-03-31T02:32:22.451Z,7.90
2019-03-31T02:34:36.181Z,7.80
2019-03-31T02:37:05.406Z,7.80
2019-03-31T02:39:34.687Z,7.70
2019-03-31T02:42:03.913Z,7.80
2019-03-31T02:44:32.752Z,7.70
2019-03-31T02:47:02.172Z,7.70
2019-03-31T02:49:31.174Z,7.70
2019-03-31T02:52:00.377Z,7.70
2019-03-31T02:54:31.172Z,7.70
2019-03-31T02:57:00.318Z,7.70
2019-03-31T02:59:31.782Z,7.70
2019-03-31T03:02:01.822Z,7.60
2019-03-31T03:04:34.117Z,7.70
2019-03-31T03:07:03.274Z,7.70
2019-03-31T03:09:34.508Z,7.70
2019-03-31T03:12:05.531Z,7.70
2019-03-31T03:14:37.165Z,7.60
2019-03-31T03:17:07.086Z,7.60
2019-03-31T03:19:36.800Z,7.60
2019-03-31T03:22:06.127Z,7.60
2019-03-31T03:24:36.620Z,7.50
2019-03-31T03:27:05.577Z,7.50
2019-03-31T03:29:34.638Z,7.50
2019-03-31T03:32:03.559Z,7.50
2019-03-31T03:34:32.335Z,7.50
2019-03-31T03:37:01.167Z,7.50
2019-03-31T03:39:30.365Z,7.50
2019-03-31T03:41:59.669Z,7.40
2019-03-31T03:44:29.219Z,7.40
2019-03-31T03:46:58.674Z,7.30
2019-03-31T03:49:28.386Z,7.30
2019-03-31T03:51:57.682Z,7.30
2019-03-31T03:54:26.680Z,7.30
2019-03-31T03:56:56.288Z,7.20
2019-03-31T03:59:25.263Z,7.20
2019-03-31T04:01:54.137Z,7.20
2019-03-31T04:04:23.424Z,7.10
2019-03-31T04:06:52.293Z,7.10
2019-03-31T04:09:21.210Z,7.10
2019-03-31T04:11:49.899Z,7.10
2019-03-31T04:14:18.722Z,7.10
2019-03-31T04:16:47.787Z,7.10
2019-03-31T04:19:16.921Z,7.10
2019-03-31T04:21:46.450Z,7.00
2019-03-31T04:24:15.372Z,7.00
2019-03-31T04:26:45.290Z,7.00
2019-03-31T04:29:14.781Z,7.00
2019-03-31T04:31:44.438Z,7.00
2019-03-31T04:34:13.390Z,6.90
2019-03-31T04:36:42.871Z,6.90
2019-03-31T04:39:12.339Z,6.90
2019-03-31T04:41:41.230Z,6.80
2019-03-31T04:44:10.217Z,6.80
2019-03-31T04:46:39.410Z,6.80
2019-03-31T04:49:08.373Z,6.80
2019-03-31T04:51:37.443Z,6.90
2019-03-31T04:54:06.362Z,6.90
2019-03-31T04:56:35.599Z,6.90
2019-03-31T04:59:04.521Z,6.90
2019-03-31T05:01:34.303Z,6.80
2019-03-31T05:04:11.929Z,6.80
2019-03-31T05:06:40.986Z,6.70
2019-03-31T05:09:10.195Z,6.70
2019-03-31T05:11:39.830Z,6.60
2019-03-31T05:14:08.682Z,6.60
2019-03-31T05:16:37.725Z,6.60
2019-03-31T05:19:06.550Z,6.60
2019-03-31T05:21:35.506Z,6.60
2019-03-31T05:24:05.066Z,6.60
2019-03-31T05:26:34.621Z,6.50
2019-03-31T05:29:08.885Z,6.50
2019-03-31T05:31:38.110Z,6.50
2019-03-31T05:34:18.433Z,6.50
2019-03-31T05:36:38.769Z,6.50
2019-03-31T05:39:08.420Z,6.50
2019-03-31T05:41:37.624Z,6.50
2019-03-31T05:44:07.069Z,6.50
2019-03-31T05:46:35.986Z,6.50
2019-03-31T05:49:05.023Z,6.50
2019-03-31T05:51:34.922Z,6.50
2019-03-31T05:54:04.450Z,6.50
2019-03-31T05:56:33.957Z,6.50
2019-03-31T05:59:02.866Z,6.50
2019-03-31T06:01:40.001Z,6.50
2019-03-31T06:04:17.972Z,6.40
2019-03-31T06:06:55.795Z,6.40
2019-03-31T06:09:32.913Z,6.30
2019-03-31T06:12:08.910Z,6.30
2019-03-31T06:14:51.601Z,6.30
2019-03-31T06:21:25.414Z,6.40
2019-03-31T06:23:59.311Z,6.50
2019-03-31T06:26:45.724Z,6.60
2019-03-31T06:29:20.459Z,6.60
2019-03-31T06:31:59.536Z,6.70
2019-03-31T06:34:47.503Z,6.70
2019-03-31T06:37:19.642Z,6.70
2019-03-31T06:39:56.118Z,6.80
2019-03-31T06:42:43.704Z,6.90
2019-03-31T06:45:21.943Z,6.90
2019-03-31T06:48:04.042Z,7.00
2019-03-31T06:50:42.060Z,7.10
2019-03-31T06:53:15.383Z,7.20
2019-03-31T06:56:01.439Z,7.20
2019-03-31T06:58:37.607Z,7.30
2019-03-31T07:01:16.084Z,7.50
2019-03-31T07:03:57.010Z,7.50
2019-03-31T07:06:40.949Z,7.60
2019-03-31T07:09:20.967Z,7.70
2019-03-31T07:12:02.469Z,7.80
2019-03-31T07:14:33.220Z,7.90
2019-03-31T07:17:12.838Z,8.00
2019-03-31T07:19:50.936Z,8.00
2019-03-31T07:22:25.917Z,8.10
2019-03-31T07:25:04.621Z,8.10
2019-03-31T07:27:44.009Z,8.20
2019-03-31T07:30:25.352Z,8.30
2019-03-31T07:33:03.540Z,8.30
2019-03-31T07:35:39.571Z,8.40
2019-03-31T07:38:16.836Z,8.40
2019-03-31T07:41:11.752Z,8.60
2019-03-31T07:43:33.472Z,8.70
2019-03-31T07:46:12.167Z,8.80
2019-03-31T07:48:50.370Z,8.90
2019-03-31T07:51:30.418Z,9.00
2019-03-31T07:54:08.827Z,9.20
2019-03-31T07:56:47.764Z,9.20
2019-03-31T07:59:28.386Z,9.50
2019-03-31T08:02:06.434Z,9.70
2019-03-31T08:04:42.797Z,10.10
2019-03-31T08:07:19.338Z,10.50
2019-03-31T08:10:09.473Z,10.60
2019-03-31T08:12:48.445Z,10.80
2019-03-31T08:15:27.296Z,11.00
2019-03-31T08:18:03.252Z,11.10
2019-03-31T08:20:39.605Z,11.30
2019-03-31T08:23:13.644Z,11.50
2019-03-31T08:25:58.247Z,11.50
2019-03-31T08:28:37.695Z,11.60
2019-03-31T08:31:16.266Z,11.70
2019-03-31T08:33:55.606Z,11.80
2019-03-31T08:36:35.325Z,11.90
2019-03-31T08:39:14.758Z,12.10
2019-03-31T08:41:55.194Z,12.20
2019-03-31T08:44:34.370Z,12.40
2019-03-31T08:47:10.520Z,12.70
2019-03-31T08:49:48.524Z,13.30
2019-03-31T08:52:33.744Z,13.70
2019-03-31T08:55:07.993Z,14.30
2019-03-31T08:57:42.266Z,14.60
2019-03-31T09:00:30.254Z,14.80
2019-03-31T09:03:04.668Z,15.30
2019-03-31T09:05:39.588Z,15.80
2019-03-31T09:08:11.328Z,16.20
2019-03-31T09:10:51.341Z,16.60
2019-03-31T09:13:27.684Z,16.90
2019-03-31T09:16:04.795Z,17.30
2019-03-31T09:18:44.005Z,17.60
2019-03-31T09:21:23.361Z,17.80
2019-03-31T09:24:00.572Z,18.00
2019-03-31T09:26:29.533Z,18.10
2019-03-31T09:28:58.518Z,18.30
2019-03-31T09:31:35.141Z,18.60
2019-03-31T09:34:11.522Z,18.90
2019-03-31T09:36:42.038Z,19.50
2019-03-31T09:39:10.953Z,19.90
2019-03-31T09:41:45.589Z,20.30
2019-03-31T09:44:26.063Z,20.70
2019-03-31T09:47:05.208Z,21.00
2019-03-31T09:49:46.249Z,21.10
2019-03-31T09:52:25.767Z,21.50
2019-03-31T09:55:05.890Z,21.80
2019-03-31T09:57:43.013Z,22.10
2019-03-31T10:00:28.805Z,22.50
2019-03-31T10:03:08.341Z,23.20
2019-03-31T10:05:48.553Z,23.50
2019-03-31T10:08:30.261Z,23.90
2019-03-31T10:11:12.457Z,24.10
2019-03-31T10:13:51.854Z,23.90
2019-03-31T10:16:27.393Z,23.80
2019-03-31T10:19:03.068Z,23.90
2019-03-31T10:21:53.146Z,24.40
2019-03-31T10:24:36.440Z,25.00
2019-03-31T10:27:13.628Z,25.50
2019-03-31T10:29:58.515Z,25.90
2019-03-31T10:32:36.285Z,26.30
2019-03-31T10:35:13.451Z,26.30
2019-03-31T10:37:53.628Z,26.30
2019-03-31T10:40:31.446Z,26.30
2019-03-31T10:43:06.134Z,26.40
2019-03-31T10:45:44.922Z,26.30
2019-03-31T10:48:25.024Z,26.30
2019-03-31T10:51:11.799Z,26.30
2019-03-31T10:53:47.357Z,26.30
2019-03-31T10:56:22.305Z,26.60
2019-03-31T10:59:00.167Z,26.60
2019-03-31T11:01:39.371Z,26.70
2019-03-31T11:04:15.359Z,26.80
2019-03-31T11:06:59.701Z,26.90
2019-03-31T11:09:34.340Z,27.20
2019-03-31T11:12:17.524Z,27.50
2019-03-31T11:14:58.354Z,27.50
2019-03-31T11:17:35.738Z,27.40
2019-03-31T11:20:13.335Z,27.50
2019-03-31T11:23:03.369Z,27.50
2019-03-31T11:25:39.880Z,27.60
2019-03-31T11:28:26.541Z,27.60
2019-03-31T11:31:11.781Z,27.70
2019-03-31T11:33:48.464Z,27.50
2019-03-31T11:36:23.473Z,27.40
2019-03-31T11:39:03.345Z,27.50
2019-03-31T11:41:41.541Z,27.80
2019-03-31T11:44:22.415Z,27.90
2019-03-31T11:47:01.096Z,27.90
2019-03-31T11:49:36.886Z,27.90
2019-03-31T11:52:17.636Z,27.50
2019-03-31T11:54:56.655Z,27.20
2019-03-31T11:57:36.625Z,27.20
2019-03-31T12:00:21.329Z,27.10
2019-03-31T12:02:58.717Z,27.00
2019-03-31T12:05:35.469Z,26.60
2019-03-31T12:08:12.592Z,26.20
2019-03-31T12:10:52.089Z,26.00
2019-03-31T12:13:29.786Z,25.80
2019-03-31T12:16:07.555Z,25.70
2019-03-31T12:18:44.260Z,25.50
2019-03-31T12:21:25.137Z,25.30
2019-03-31T12:24:04.545Z,25.30
2019-03-31T12:26:42.281Z,25.00
2019-03-31T12:29:21.653Z,24.80
2019-03-31T12:32:03.527Z,24.60
2019-03-31T12:34:42.005Z,24.40
2019-03-31T12:37:20.497Z,24.30
2019-03-31T12:40:06.907Z,24.40
2019-03-31T12:42:46.693Z,24.50
2019-03-31T12:45:22.211Z,24.50
2019-03-31T12:48:01.458Z,24.50
2019-03-31T12:50:41.770Z,24.30
2019-03-31T12:53:10.770Z,24.20
2019-03-31T12:55:59.527Z,24.20
2019-03-31T12:58:19.181Z,24.20
2019-03-31T13:00:55.404Z,24.20
2019-03-31T13:03:35.166Z,24.20
2019-03-31T13:06:05.509Z,24.10
2019-03-31T13:08:45.428Z,24.00
2019-03-31T13:11:23.821Z,23.90
2019-03-31T13:14:00.477Z,23.80
2019-03-31T13:16:40.352Z,23.90
2019-03-31T13:19:16.563Z,23.90
2019-03-31T13:21:56.633Z,23.90
2019-03-31T13:24:34.792Z,23.80
2019-03-31T13:27:11.637Z,23.80
2019-03-31T13:29:48.193Z,23.80
2019-03-31T13:32:31.098Z,23.70
2019-03-31T13:35:12.277Z,23.70
2019-03-31T13:37:52.080Z,23.60
2019-03-31T13:40:31.076Z,23.60
2019-03-31T13:43:08.388Z,23.50
2019-03-31T13:45:50.383Z,23.40
2019-03-31T13:48:28.390Z,23.30
2019-03-31T13:51:09.917Z,23.40
2019-03-31T13:53:53.119Z,23.40
2019-03-31T13:56:36.291Z,23.40
2019-03-31T13:59:15.309Z,23.30
2019-03-31T14:01:51.533Z,23.30
2019-03-31T14:04:27.216Z,23.30
2019-03-31T14:07:10.916Z,23.30
2019-03-31T14:09:49.813Z,23.20
2019-03-31T14:12:26.027Z,23.30
2019-03-31T14:15:18.455Z,23.30
2019-03-31T14:17:51.790Z,23.20
2019-03-31T14:20:26.906Z,23.20
2019-03-31T14:23:06.984Z,23.20
2019-03-31T14:25:44.794Z,23.10
2019-03-31T14:28:22.313Z,23.10
2019-03-31T14:31:01.377Z,23.20
2019-03-31T14:33:37.410Z,23.20
2019-03-31T14:36:13.485Z,23.10
2019-03-31T14:38:49.452Z,23.00
2019-03-31T14:41:33.452Z,22.80
2019-03-31T14:44:10.304Z,22.80
2019-03-31T14:46:54.442Z,22.70
2019-03-31T14:49:35.090Z,22.70
2019-03-31T14:52:11.477Z,22.60
2019-03-31T14:54:57.629Z,22.60
2019-03-31T14:57:40.099Z,22.50
2019-03-31T15:00:18.513Z,22.50
2019-03-31T15:02:57.996Z,22.50
2019-03-31T15:05:40.177Z,22.40
2019-03-31T15:08:19.069Z,22.30
2019-03-31T15:10:56.637Z,22.30
2019-03-31T15:13:38.103Z,22.20
2019-03-31T15:16:13.752Z,22.10
2019-03-31T15:18:54.658Z,22.00
2019-03-31T15:21:31.118Z,22.00
2019-03-31T15:24:09.971Z,21.90
2019-03-31T15:26:47.173Z,21.90
2019-03-31T15:29:22.625Z,21.80
2019-03-31T15:32:00.055Z,21.70
2019-03-31T15:34:47.199Z,21.60
2019-03-31T15:37:23.424Z,21.50
2019-03-31T15:40:07.274Z,21.40
2019-03-31T15:42:44.673Z,21.30
2019-03-31T15:45:29.711Z,21.20
2019-03-31T15:48:07.110Z,21.20
2019-03-31T15:50:51.180Z,21.10
2019-03-31T15:53:28.311Z,21.10
2019-03-31T15:56:08.058Z,20.90
2019-03-31T15:58:50.004Z,20.90
2019-03-31T16:01:27.236Z,20.80
2019-03-31T16:04:10.961Z,20.80
2019-03-31T16:06:55.228Z,20.60
2019-03-31T16:09:24.570Z,20.60
2019-03-31T16:12:00.734Z,20.50
2019-03-31T16:14:36.017Z,20.50
2019-03-31T16:17:11.625Z,20.50
2019-03-31T16:19:49.967Z,20.40
2019-03-31T16:22:31.718Z,20.40
2019-03-31T16:25:19.192Z,20.40
2019-03-31T16:27:53.579Z,20.30
2019-03-31T16:30:29.706Z,20.20
2019-03-31T16:33:07.893Z,20.20
2019-03-31T16:35:43.440Z,20.20
2019-03-31T16:38:20.645Z,20.10
2019-03-31T16:40:55.058Z,20.10
2019-03-31T16:43:36.718Z,20.00
2019-03-31T16:46:15.781Z,20.00
2019-03-31T16:48:54.117Z,19.90
2019-03-31T16:51:32.470Z,19.90
2019-03-31T16:54:14.205Z,19.90
2019-03-31T16:56:56.337Z,19.80
2019-03-31T16:59:35.643Z,19.70
2019-03-31T17:02:13.136Z,19.70
2019-03-31T17:04:56.353Z,19.60
2019-03-31T17:07:33.719Z,19.60
2019-03-31T17:10:18.622Z,19.60
2019-03-31T17:12:53.693Z,19.50
2019-03-31T17:15:28.267Z,19.50
2019-03-31T17:18:02.663Z,19.40
2019-03-31T17:20:40.886Z,19.40
2019-03-31T17:23:18.763Z,19.40
2019-03-31T17:26:05.063Z,19.30
2019-03-31T17:28:42.427Z,19.20
2019-03-31T17:31:16.642Z,19.20
2019-03-31T17:33:50.071Z,19.10
2019-03-31T17:36:31.537Z,19.10
2019-03-31T17:39:14.997Z,19.00
2019-03-31T17:41:54.823Z,18.90
2019-03-31T17:44:37.671Z,18.90
2019-03-31T17:47:15.626Z,18.80
2019-03-31T17:49:51.409Z,18.80
2019-03-31T17:52:36.998Z,18.70
2019-03-31T17:55:20.627Z,18.60
2019-03-31T17:57:58.704Z,18.50
2019-03-31T18:00:31.351Z,18.50
2019-03-31T18:03:15.360Z,18.40
2019-03-31T18:05:53.939Z,18.30
2019-03-31T18:08:42.886Z,18.30
2019-03-31T18:11:16.845Z,18.20
2019-03-31T18:13:54.127Z,18.10
2019-03-31T18:16:34.858Z,18.00
2019-03-31T18:19:14.221Z,17.90
2019-03-31T18:21:50.968Z,17.80
2019-03-31T18:24:27.323Z,17.70
2019-03-31T18:27:04.948Z,17.50
2019-03-31T18:29:45.477Z,17.40
2019-03-31T18:32:25.488Z,17.30
2019-03-31T18:35:05.065Z,17.10
2019-03-31T18:37:41.691Z,17.00
2019-03-31T18:40:19.202Z,16.90
2019-03-31T18:42:58.591Z,16.90
2019-03-31T18:45:39.484Z,16.80
2019-03-31T18:48:18.283Z,16.70
2019-03-31T18:50:52.473Z,16.60
2019-03-31T18:53:58.846Z,16.50
2019-03-31T18:57:10.953Z,16.50
2019-03-31T19:00:14.487Z,16.30
2019-03-31T19:03:10.333Z,16.20
2019-03-31T19:06:31.360Z,16.10
2019-03-31T19:09:36.709Z,16.00
2019-03-31T19:12:35.671Z,15.90
2019-03-31T19:15:46.932Z,15.80
2019-03-31T19:18:34.544Z,15.70
2019-03-31T19:21:23.129Z,15.60
2019-03-31T19:24:18.538Z,15.50
2019-03-31T19:27:16.410Z,15.50
2019-03-31T19:30:23.932Z,15.40
2019-03-31T19:33:20.642Z,15.30
2019-03-31T19:36:14.610Z,15.20
2019-03-31T19:39:16.728Z,15.20
2019-03-31T19:42:06.742Z,15.10
2019-03-31T19:45:07.614Z,15.00
2019-03-31T19:47:56.021Z,15.00
2019-03-31T19:50:47.382Z,14.90
2019-03-31T19:53:41.880Z,14.80
2019-03-31T19:56:19.621Z,14.70
2019-03-31T19:59:07.903Z,14.70
2019-03-31T20:01:44.046Z,14.60
2019-03-31T20:04:51.388Z,14.50
2019-03-31T20:07:32.939Z,14.50
2019-03-31T20:10:19.287Z,14.40
2019-03-31T20:12:59.266Z,14.40
2019-03-31T20:15:47.223Z,14.30
2019-03-31T20:18:38.031Z,14.30
2019-03-31T20:21:41.146Z,14.20
2019-03-31T20:24:35.023Z,14.10
2019-03-31T20:27:18.349Z,14.10
2019-03-31T20:29:55.074Z,14.00
2019-03-31T20:32:40.792Z,13.90
2019-03-31T20:35:28.680Z,13.90
2019-03-31T20:38:15.638Z,13.80
2019-03-31T20:40:51.045Z,13.80
2019-03-31T20:43:37.394Z,13.70
2019-03-31T20:46:05.615Z,13.60
2019-03-31T20:48:34.013Z,13.60
2019-03-31T20:51:02.718Z,13.50
2019-03-31T20:53:31.836Z,13.50
2019-03-31T20:56:00.674Z,13.40
2019-03-31T20:58:29.578Z,13.40
2019-03-31T21:00:58.032Z,13.40
2019-03-31T21:03:26.853Z,13.30
2019-03-31T21:05:55.441Z,13.30
2019-03-31T21:08:23.881Z,13.20
2019-03-31T21:10:52.551Z,13.20
2019-03-31T21:13:21.584Z,13.10
2019-03-31T21:15:50.168Z,13.10
2019-03-31T21:18:18.851Z,13.00
2019-03-31T21:20:47.730Z,13.00
2019-03-31T21:23:16.186Z,12.90
2019-03-31T21:25:44.858Z,12.90
2019-03-31T21:28:13.645Z,12.90
2019-03-31T21:30:42.432Z,12.90
2019-03-31T21:33:11.173Z,12.80
2019-03-31T21:35:39.761Z,12.80
2019-03-31T21:38:08.516Z,12.70
2019-03-31T21:40:37.177Z,12.60
2019-03-31T21:43:08.344Z,12.60
2019-03-31T21:45:38.384Z,12.60
2019-03-31T21:48:06.840Z,12.50
2019-03-31T21:50:36.678Z,12.50
2019-03-31T21:53:05.327Z,12.50
2019-03-31T21:55:34.013Z,12.40
2019-03-31T21:58:03.028Z,12.40
2019-03-31T22:00:50.745Z,12.40
2019-03-31T22:03:19.766Z,12.30
2019-03-31T22:05:49.222Z,12.30
2019-03-31T22:08:18.206Z,12.20
2019-03-31T22:10:47.043Z,12.20
2019-03-31T22:13:15.805Z,12.20
2019-03-31T22:15:44.597Z,12.20
2019-03-31T22:18:12.995Z,12.10
2019-03-31T22:20:41.758Z,12.10
2019-03-31T22:23:10.449Z,12.00
2019-03-31T22:25:39.177Z,12.00
2019-03-31T22:28:08.051Z,12.00
2019-03-31T22:30:36.672Z,11.90
2019-03-31T22:33:05.408Z,11.90
2019-03-31T22:35:33.858Z,11.80
2019-03-31T22:38:03.580Z,11.80
2019-03-31T22:40:32.481Z,11.70
2019-03-31T22:43:00.858Z,11.70
2019-03-31T22:45:29.432Z,11.70
2019-03-31T22:47:57.958Z,11.60
2019-03-31T22:50:26.671Z,11.60
2019-03-31T22:52:55.263Z,11.50
2019-03-31T22:55:23.696Z,11.50
2019-03-31T22:57:52.249Z,11.50
2019-03-31T23:00:29.777Z,11.40
2019-03-31T23:02:58.417Z,11.40
2019-03-31T23:05:26.814Z,11.30
2019-03-31T23:07:55.001Z,11.30
2019-03-31T23:10:23.654Z,11.30
2019-03-31T23:12:52.137Z,11.30
2019-03-31T23:15:20.861Z,11.20
2019-03-31T23:17:49.514Z,11.20
2019-03-31T23:20:18.194Z,11.20
2019-03-31T23:22:46.922Z,11.20
2019-03-31T23:25:15.569Z,11.20
2019-03-31T23:27:44.248Z,11.20
2019-03-31T23:30:13.481Z,11.20
2019-03-31T23:32:42.229Z,11.20
2019-03-31T23:35:10.941Z,11.20
2019-03-31T23:37:39.642Z,11.20
2019-03-31T23:40:08.281Z,11.10
2019-03-31T23:42:36.973Z,11.10
2019-03-31T23:45:05.602Z,11.10
2019-03-31T23:47:34.763Z,11.00
2019-03-31T23:50:03.447Z,11.00
2019-03-31T23:52:31.973Z,11.10
2019-03-31T23:55:00.617Z,11.00
2019-03-31T23:57:39.580Z,11.00
